createdAt,value
2022-10-03T04:35:28.736Z,16.33
2022-10-03T04:38:35.283Z,18.52
2022-10-03T04:41:27.859Z,14.27
2022-10-03T04:44:21.710Z,11.57
2022-10-03T04:46:59.077Z,11.38
2022-10-03T04:49:41.123Z,14.77
2022-10-03T04:52:35.943Z,14.45
2022-10-03T04:55:24.104Z,14.05
2022-10-03T04:58:05.267Z,14.82
2022-10-03T05:00:50.576Z,13.80
2022-10-03T05:03:42.644Z,10.82
2022-10-03T05:06:56.183Z,11.43
2022-10-03T05:10:05.044Z,12.27
2022-10-03T05:13:10.358Z,13.70
2022-10-03T05:16:01.583Z,13.90
2022-10-03T05:18:48.453Z,11.60
2022-10-03T05:21:40.706Z,13.55
2022-10-03T05:24:25.972Z,10.38
2022-10-03T05:27:08.681Z,13.88
2022-10-03T05:30:15.835Z,10.13
2022-10-03T05:33:08.278Z,11.13
2022-10-03T05:36:01.217Z,11.25
2022-10-03T05:39:41.424Z,9.68
2022-10-03T05:43:18.463Z,9.98
2022-10-03T05:47:35.354Z,10.35
2022-10-03T05:51:01.039Z,10.60
2022-10-03T05:54:44.331Z,8.25
2022-10-03T05:58:30.494Z,11.35
2022-10-03T06:01:32.183Z,8.13
2022-10-03T06:04:50.482Z,11.00
2022-10-03T06:07:32.447Z,10.15
2022-10-03T06:10:49.955Z,9.75
2022-10-03T06:14:35.746Z,7.70
2022-10-03T06:17:28.509Z,7.57
2022-10-03T06:20:23.302Z,9.35
2022-10-03T06:39:02.562Z,8.55
2022-10-03T06:47:27.542Z,7.20
2022-10-03T06:50:47.346Z,8.80
2022-10-03T06:53:56.622Z,10.07
2022-10-03T06:56:51.724Z,8.55
2022-10-03T06:59:48.535Z,8.48
2022-10-03T07:02:49.603Z,7.47
2022-10-03T07:06:01.116Z,8.93
2022-10-03T07:09:13.865Z,5.43
2022-10-03T07:12:34.644Z,13.32
2022-10-03T07:16:13.896Z,8.25
2022-10-03T07:19:37.350Z,12.32
2022-10-03T07:22:44.301Z,8.77
2022-10-03T07:26:05.636Z,10.02
2022-10-03T07:29:11.274Z,11.32
2022-10-03T07:32:06.333Z,9.40
2022-10-03T07:35:55.504Z,11.50
2022-10-03T07:39:08.941Z,6.82
2022-10-03T07:42:09.859Z,10.15
2022-10-03T07:45:07.346Z,8.45
2022-10-03T07:48:16.257Z,7.95
2022-10-03T07:51:17.478Z,6.80
2022-10-03T07:54:51.597Z,8.32
2022-10-03T07:57:42.406Z,6.88
2022-10-03T08:00:43.874Z,8.70
2022-10-03T08:03:52.400Z,10.02
2022-10-03T08:06:39.511Z,7.10
2022-10-03T08:09:48.674Z,6.38
2022-10-03T08:12:50.191Z,7.75
2022-10-03T08:15:48.078Z,10.35
2022-10-03T08:18:56.247Z,8.40
2022-10-03T08:22:04.359Z,5.50
2022-10-03T08:25:10.259Z,6.10
2022-10-03T08:27:56.173Z,7.00
2022-10-03T08:30:47.605Z,5.97
2022-10-03T08:34:01.506Z,4.57
2022-10-03T08:37:01.923Z,8.27
2022-10-03T08:40:03.480Z,7.15
2022-10-03T08:43:10.342Z,10.40
2022-10-03T08:49:09.086Z,6.53
2022-10-03T08:52:01.908Z,6.25
2022-10-03T08:54:55.222Z,5.10
2022-10-03T08:58:12.838Z,6.25
2022-10-03T09:01:04.737Z,5.07
2022-10-03T09:04:27.193Z,3.63
2022-10-03T09:07:31.692Z,7.53
2022-10-03T09:10:28.286Z,3.47
2022-10-03T09:13:36.063Z,6.30
2022-10-03T09:16:55.544Z,7.43
2022-10-03T09:20:00.892Z,3.55
2022-10-03T09:22:56.233Z,9.35
2022-10-03T09:25:55.056Z,5.77
2022-10-03T09:29:01.051Z,3.97
2022-10-03T09:35:31.253Z,3.33
2022-10-03T09:38:44.736Z,3.75
2022-10-03T09:41:50.525Z,4.40
2022-10-03T09:53:04.769Z,3.92
2022-10-03T09:55:47.594Z,4.82
2022-10-03T09:58:43.813Z,3.95
2022-10-03T10:01:32.165Z,4.13
2022-10-03T10:04:56.614Z,7.97
2022-10-03T10:08:07.552Z,4.35
2022-10-03T10:11:01.955Z,3.95
2022-10-03T10:14:08.159Z,5.97
2022-10-03T10:17:13.348Z,7.22
2022-10-03T10:20:06.331Z,4.68
2022-10-03T10:23:12.995Z,5.60
2022-10-03T10:26:38.171Z,10.32
2022-10-03T10:29:38.639Z,9.00
2022-10-03T10:32:54.949Z,4.57
2022-10-03T10:36:26.487Z,6.82
2022-10-03T10:39:42.570Z,3.90
2022-10-03T10:43:01.968Z,3.65
2022-10-03T10:46:33.529Z,6.88
2022-10-03T10:50:10.127Z,2.85
2022-10-03T10:53:38.229Z,2.33
2022-10-03T10:57:00.421Z,2.47
2022-10-03T11:00:49.607Z,2.38
2022-10-03T11:04:20.481Z,4.63
2022-10-03T11:08:37.437Z,1.25
2022-10-03T11:11:51.597Z,2.10
2022-10-03T11:14:54.415Z,1.55
2022-10-03T11:18:13.246Z,0.80
2022-10-03T11:21:30.297Z,2.05
2022-10-03T11:24:37.386Z,0.73
2022-10-03T11:27:49.782Z,0.57
2022-10-03T11:31:08.693Z,3.10
2022-10-03T11:34:32.599Z,5.57
2022-10-03T11:37:12.237Z,3.33
2022-10-03T11:39:50.463Z,4.10
2022-10-03T11:42:57.955Z,2.95
2022-10-03T11:48:45.201Z,1.38
2022-10-03T11:51:24.049Z,10.20
2022-10-03T11:54:29.981Z,2.08
2022-10-03T11:57:08.889Z,1.05
2022-10-03T12:00:20.765Z,3.10
2022-10-03T12:03:20.866Z,1.45
2022-10-03T12:06:15.614Z,4.32
2022-10-03T12:08:58.102Z,1.20
2022-10-03T12:11:32.333Z,1.02
2022-10-03T12:17:05.987Z,0.63
2022-10-03T12:19:45.180Z,0.95
2022-10-03T12:22:32.007Z,0.57
2022-10-03T12:25:18.171Z,0.88
2022-10-03T12:28:15.545Z,0.50
2022-10-03T12:31:01.119Z,1.27
2022-10-03T12:36:21.907Z,2.30
2022-10-03T12:39:14.282Z,1.30
2022-10-03T12:46:04.310Z,1.45
2022-10-03T12:48:48.766Z,1.75
2022-10-03T12:52:19.413Z,2.40
2022-10-03T12:55:33.588Z,3.05
2022-10-03T12:58:21.501Z,1.17
2022-10-03T13:03:44.870Z,1.02
2022-10-03T13:07:02.291Z,0.80
2022-10-03T13:10:17.836Z,2.47
2022-10-03T13:13:34.615Z,1.10
2022-10-03T13:16:55.209Z,0.90
2022-10-03T13:19:52.136Z,0.35
2022-10-03T13:27:44.240Z,0.50
2022-10-03T13:30:25.564Z,1.05
2022-10-03T13:33:01.720Z,1.08
2022-10-03T13:36:00.371Z,1.13
2022-10-03T13:39:03.501Z,0.88
2022-10-03T13:42:04.071Z,0.65
2022-10-03T13:44:44.545Z,0.90
2022-10-03T13:47:44.369Z,0.45
2022-10-03T13:50:28.281Z,5.97
2022-10-03T13:53:02.615Z,0.40
2022-10-03T13:55:45.131Z,0.97
2022-10-03T13:58:45.211Z,2.55
2022-10-03T14:01:42.265Z,1.65
2022-10-03T14:04:52.981Z,2.28
2022-10-03T14:07:35.051Z,0.40
2022-10-03T14:10:33.774Z,0.47
2022-10-03T14:13:37.590Z,0.85
2022-10-03T14:16:46.140Z,1.20
2022-10-03T14:19:46.645Z,0.82
2022-10-03T14:22:54.389Z,0.60
2022-10-03T14:25:32.442Z,0.63
2022-10-03T14:28:18.563Z,1.17
2022-10-03T14:31:09.215Z,0.52
2022-10-03T14:33:46.545Z,0.75
2022-10-03T14:36:42.595Z,0.65
2022-10-03T14:39:43.456Z,0.82
2022-10-03T14:42:51.717Z,1.38
2022-10-03T14:48:02.135Z,2.05
2022-10-03T14:50:35.432Z,0.68
2022-10-03T14:53:09.219Z,1.27
2022-10-03T14:55:49.145Z,1.25
2022-10-03T14:58:28.769Z,2.60
2022-10-03T15:01:07.712Z,0.60
2022-10-03T15:03:42.242Z,2.13
2022-10-03T15:06:37.662Z,1.02
2022-10-03T15:09:13.514Z,2.22
2022-10-03T15:12:02.132Z,1.00
2022-10-03T15:14:37.506Z,0.85
2022-10-03T15:17:23.585Z,1.65
2022-10-03T15:19:56.162Z,1.27
2022-10-03T15:22:45.823Z,1.85
2022-10-03T15:25:20.256Z,0.82
2022-10-03T15:28:24.714Z,0.60
2022-10-03T15:30:56.863Z,3.45
2022-10-03T15:33:32.641Z,3.22
2022-10-03T15:36:12.972Z,1.23
2022-10-03T15:38:45.491Z,2.88
2022-10-03T15:41:17.443Z,1.17
2022-10-03T15:44:01.767Z,0.65
2022-10-03T15:46:37.485Z,1.98
2022-10-03T15:49:13.653Z,0.60
2022-10-03T15:51:47.914Z,3.65
2022-10-03T15:54:37.058Z,9.70
2022-10-03T15:57:09.776Z,1.42
2022-10-03T15:59:47.311Z,2.42
2022-10-03T16:02:21.298Z,2.78
2022-10-03T16:04:57.500Z,1.42
2022-10-03T16:07:39.907Z,1.85
2022-10-03T16:10:20.684Z,3.25
2022-10-03T16:13:03.549Z,0.60
2022-10-03T16:16:09.454Z,0.52
2022-10-03T16:22:48.760Z,1.65
2022-10-03T16:25:23.996Z,0.82
2022-10-03T16:27:58.258Z,2.15
2022-10-03T16:30:38.548Z,0.52
2022-10-03T16:33:19.500Z,9.48
2022-10-03T16:36:02.086Z,1.08
2022-10-03T16:38:49.015Z,1.42
2022-10-03T16:41:50.300Z,0.80
2022-10-03T16:48:16.624Z,3.40
2022-10-03T16:50:54.141Z,1.45
2022-10-03T16:53:36.309Z,1.67
2022-10-03T16:56:15.045Z,4.25
2022-10-03T16:58:50.630Z,4.75
2022-10-03T17:01:39.294Z,3.45
2022-10-03T17:04:38.784Z,2.92
2022-10-03T17:07:53.402Z,0.90
2022-10-03T17:11:14.050Z,0.70
2022-10-03T17:18:00.922Z,1.70
2022-10-03T17:26:53.480Z,1.70
2022-10-03T17:29:55.602Z,1.70
2022-10-03T17:32:50.480Z,2.08
2022-10-03T17:35:40.405Z,1.67
2022-10-03T17:38:49.434Z,5.38
2022-10-03T17:41:35.220Z,1.92
2022-10-03T17:44:38.899Z,1.30
2022-10-03T17:47:25.058Z,2.22
2022-10-03T17:50:06.759Z,2.03
2022-10-03T17:52:56.758Z,4.45
2022-10-03T17:56:42.881Z,1.38
2022-10-03T17:59:39.616Z,0.85
2022-10-03T18:02:32.972Z,1.17
2022-10-03T18:06:34.606Z,1.10
2022-10-03T18:09:34.872Z,2.00
2022-10-03T18:12:18.465Z,3.10
2022-10-03T18:15:50.558Z,1.13
2022-10-03T18:19:17.393Z,1.55
2022-10-03T18:22:21.427Z,6.10
2022-10-03T18:26:19.198Z,2.60
2022-10-03T18:29:02.566Z,3.72
2022-10-03T18:31:47.053Z,1.10
2022-10-03T18:34:38.929Z,3.00
2022-10-03T18:37:53.953Z,5.88
2022-10-03T18:40:38.559Z,1.27
2022-10-03T18:43:23.724Z,1.33
2022-10-03T18:46:30.840Z,2.25
2022-10-03T18:49:34.019Z,2.35
2022-10-03T18:52:36.384Z,1.30
2022-10-03T18:55:19.070Z,1.50
2022-10-03T18:58:08.840Z,3.60
2022-10-03T19:00:52.271Z,0.80
2022-10-03T19:03:35.580Z,2.33
2022-10-03T19:06:10.313Z,2.20
2022-10-03T19:08:52.351Z,2.97
2022-10-03T19:12:40.156Z,2.55
2022-10-03T19:18:25.820Z,2.58
2022-10-03T19:21:06.993Z,1.45
2022-10-03T19:23:47.874Z,2.22
2022-10-03T19:26:35.892Z,2.67
2022-10-03T19:29:19.372Z,5.57
2022-10-03T19:32:08.384Z,2.95
2022-10-03T19:34:50.368Z,2.65
2022-10-03T19:37:45.092Z,2.00
2022-10-03T19:40:42.801Z,1.85
2022-10-03T19:43:37.690Z,8.82
2022-10-03T19:46:28.084Z,1.85
2022-10-03T19:49:29.011Z,3.00
2022-10-03T19:52:20.048Z,1.77
2022-10-03T19:55:02.751Z,3.65
2022-10-03T19:57:51.578Z,0.90
2022-10-03T20:00:46.832Z,0.95
2022-10-03T20:03:30.981Z,0.90
2022-10-03T20:06:33.876Z,1.13
2022-10-03T20:09:09.299Z,1.42
2022-10-03T20:11:48.036Z,5.13
2022-10-03T20:14:27.574Z,0.80
2022-10-03T20:17:01.580Z,0.73
2022-10-03T20:19:41.011Z,1.77
2022-10-03T20:22:15.900Z,2.28
2022-10-03T20:24:48.356Z,2.15
2022-10-03T20:27:32.462Z,1.58
2022-10-03T20:30:09.951Z,1.20
2022-10-03T20:32:44.630Z,1.50
2022-10-03T20:35:28.553Z,1.57
2022-10-03T20:38:05.083Z,1.73
2022-10-03T20:40:38.734Z,1.77
2022-10-03T20:43:41.424Z,2.75
2022-10-03T20:46:41.999Z,0.90
2022-10-03T20:49:32.295Z,0.75
2022-10-03T20:52:04.818Z,2.38
2022-10-03T20:54:47.631Z,1.33
2022-10-03T20:57:20.763Z,5.35
2022-10-03T20:59:55.261Z,2.67
2022-10-03T21:02:33.290Z,2.45
2022-10-03T21:05:19.515Z,3.30
2022-10-03T21:07:53.875Z,1.58
2022-10-03T21:10:29.525Z,3.05
2022-10-03T21:13:03.988Z,3.78
2022-10-03T21:15:41.162Z,5.60
2022-10-03T21:18:22.062Z,3.42
2022-10-03T21:21:03.811Z,3.58
2022-10-03T21:23:39.119Z,1.88
2022-10-03T21:26:10.946Z,3.35
2022-10-03T21:28:40.660Z,2.72
2022-10-03T21:31:24.259Z,1.10
2022-10-03T21:34:01.528Z,1.92
2022-10-03T21:36:49.930Z,4.05
2022-10-03T21:39:30.108Z,6.30
2022-10-03T21:42:11.439Z,3.13
2022-10-03T21:45:00.895Z,2.95
2022-10-03T21:47:43.870Z,2.65
2022-10-03T21:50:22.128Z,4.45
2022-10-03T21:53:12.903Z,1.40
2022-10-03T21:56:07.872Z,2.53
2022-10-03T22:01:22.474Z,3.20
2022-10-03T22:03:58.725Z,1.67
2022-10-03T22:06:36.871Z,2.33
2022-10-03T22:09:13.416Z,3.72
2022-10-03T22:11:50.155Z,3.38
2022-10-03T22:14:31.215Z,2.00
2022-10-03T22:17:12.854Z,2.28
2022-10-03T22:19:47.785Z,4.25
2022-10-03T22:22:45.147Z,3.00
2022-10-03T22:25:27.998Z,4.97
2022-10-03T22:28:04.791Z,5.68
2022-10-03T22:30:39.384Z,2.20
2022-10-03T22:33:17.585Z,2.83
2022-10-03T22:35:52.910Z,2.60
2022-10-03T22:38:26.909Z,2.83
2022-10-03T22:41:00.529Z,2.25
2022-10-03T22:43:30.973Z,2.45
2022-10-03T22:46:00.946Z,2.83
2022-10-03T22:48:34.581Z,2.08
2022-10-03T22:51:08.332Z,1.92
2022-10-03T22:53:44.959Z,3.55
2022-10-03T22:56:39.419Z,3.53
2022-10-03T22:59:16.938Z,2.08
2022-10-03T23:01:47.833Z,3.92
2022-10-03T23:04:23.617Z,3.30
2022-10-03T23:07:21.133Z,3.97
2022-10-03T23:10:01.784Z,1.70
2022-10-03T23:12:40.157Z,4.68
2022-10-03T23:15:14.989Z,3.60
2022-10-03T23:18:00.474Z,4.07
2022-10-03T23:20:51.288Z,3.17
2022-10-03T23:23:26.916Z,3.20
2022-10-03T23:26:12.973Z,3.15
2022-10-03T23:28:54.842Z,3.60
2022-10-03T23:31:53.511Z,1.83
2022-10-03T23:34:46.401Z,5.57
2022-10-03T23:37:27.936Z,3.05
2022-10-03T23:40:38.606Z,3.05
2022-10-03T23:43:30.986Z,3.05
2022-10-03T23:46:02.834Z,4.95
2022-10-03T23:48:40.768Z,3.13
2022-10-03T23:51:13.875Z,2.65
2022-10-03T23:53:46.929Z,2.45
2022-10-03T23:56:30.391Z,3.92
2022-10-03T23:59:12.485Z,4.40
